Aviation Digital Data Service (ADDS)

Output produced by METARs form (0110 UTC 27 August 2016)
found at http://aviationweather.gov/adds/metars/
 
KDCA 262335Z 2700/2724 35005KT P6SM FEW200 
     FM271300 05006KT P6SM FEW200